Sao Cristovao, Brazil
Current Conditions -  °F | °C
As of 9:00 PM on Thursday 27 Nov 2014 (Local Time) from SBAR Reporting Station
Scattered Clouds Scattered Clouds  
Wind Chill: 79°   Ceiling: Unl
Heat Index: 82°   Visibility: 6mi
Dew Point: 72°   Wind: 9mph
Humidity: 78%   Direction: 100°E
Pressure: 29.94"   Gusts: NA
Location:  11.01°S, 37.21°W
Report Text: SBAR 280000Z 10008KT 9999 SCT015 26/22 Q1014
Loading
Personal Weather Stations






























Interactive Weather Map New forecast layout! Learn more

10-Day Weather Forecast

Advertisements
Track Severe Weather on mobile